| time (UTC) | temp C | wind direction | speed KPH | gust KPH | rain 1hr cm | rain 24hr cm | rain mn cm | humidity % | barometer mb |
| 20260906174535 | 37 | 67 | 8.0 | 17.7 | 0.00 | 0.00 | 0.00 | 40 | 1012.7 |
| 20260906173014 | 36 | 109 | 6.4 | 22.5 | 0.00 | 0.00 | 0.00 | 41 | 1012.9 |
| 20260906171557 | 37 | 58 | 4.8 | 16.1 | 0.00 | 0.00 | 0.00 | 41 | 1013.2 |
| 20260906170040 | 36 | 77 | 8.0 | 17.7 | 0.00 | 0.00 | 0.00 | 42 | 1013.3 |
| 20260906164512 | 36 | 86 | 3.2 | 14.5 | 0.00 | 0.00 | 0.00 | 44 | 1013.5 |
| 20260906163103 | 36 | 74 | 8.0 | 16.1 | 0.00 | 0.00 | 0.00 | 45 | 1013.7 |
| 20260906161544 | 36 | 58 | 9.7 | 16.1 | 0.00 | 0.00 | 0.00 | 45 | 1013.8 |
| 20260906160020 | 35 | 92 | 8.0 | 14.5 | 0.00 | 0.00 | 0.00 | 46 | 1013.9 |
| 20260906154504 | 34 | 125 | 6.4 | 12.9 | 0.00 | 0.00 | 0.00 | 48 | 1013.7 |
| 20260906153040 | 33 | 48 | 6.4 | 12.9 | 0.00 | 0.00 | 0.00 | 49 | 1013.8 |
| 20260906151523 | 33 | 49 | 4.8 | 9.7 | 0.00 | 0.00 | 0.00 | 51 | 1013.6 |
| 20260906150059 | 32 | 48 | 1.6 | 6.4 | 0.00 | 0.00 | 0.00 | 52 | 1013.6 |
| 20260906144533 | 32 | 134 | 0.0 | 4.8 | 0.00 | 0.00 | 0.00 | 54 | 1013.6 |
| 20260906143019 | 31 | 181 | 4.8 | 8.0 | 0.00 | 0.00 | 0.00 | 58 | 1013.7 |
| 20260906141543 | 30 | 151 | 3.2 | 6.4 | 0.00 | 0.00 | 0.00 | 62 | 1013.8 |
| 20260906140031 | 29 | 167 | 3.2 | 9.7 | 0.00 | 0.00 | 0.00 | 63 | 1013.6 |
| 20260906134504 | 28 | 159 | 4.8 | 8.0 | 0.00 | 0.00 | 0.00 | 65 | 1013.6 |
| 20260906133044 | 27 | 175 | 1.6 | 4.8 | 0.00 | 0.00 | 0.00 | 68 | 1013.4 |
| 20260906131532 | 26 | 175 | 0.0 | 4.8 | 0.00 | 0.00 | 0.00 | 72 | 1013.4 |
| 20260906130005 | 25 | 176 | 0.0 | 4.8 | 0.00 | 0.00 | 0.00 | 75 | 1013.5 |
| 20260906124547 | 25 | 178 | 1.6 | 4.8 | 0.00 | 0.00 | 0.00 | 76 | 1013.4 |
| 20260906123034 | 24 | 178 | 1.6 | 6.4 | 0.00 | 0.00 | 0.00 | 76 | 1013.1 |
| 20260906121516 | 24 | 173 | 3.2 | 6.4 | 0.00 | 0.00 | 0.00 | 76 | 1012.8 |
| 20260906120111 | 23 | 172 | 1.6 | 4.8 | 0.00 | 0.00 | 0.00 | 77 | 1012.6 |
| 20260906114539 | 23 | 172 | 1.6 | 4.8 | 0.00 | 0.00 | 0.00 | 77 | 1012.4 |
| 20260906113025 | 23 | 172 | 1.6 | 4.8 | 0.00 | 0.00 | 0.00 | 78 | 1012.3 |
| 20260906111510 | 23 | 177 | 1.6 | 4.8 | 0.00 | 0.00 | 0.00 | 78 | 1012.3 |
| 20260906110047 | 23 | 177 | 0.0 | 0.0 | 0.00 | 0.00 | 0.00 | 77 | 1012.3 |
| 20260906104536 | 23 | 177 | 0.0 | 0.0 | 0.00 | 0.00 | 0.00 | 76 | 1012.3 |
| 20260906103020 | 23 | 178 | 0.0 | 1.6 | 0.00 | 0.00 | 0.00 | 76 | 1012.3 |
| 20260906101557 | 23 | 178 | 1.6 | 4.8 | 0.00 | 0.00 | 0.00 | 75 | 1012.2 |
| 20260906100040 | 24 | 178 | 1.6 | 4.8 | 0.00 | 0.00 | 0.00 | 75 | 1012.1 |
| 20260906094534 | 24 | 184 | 3.2 | 4.8 | 0.00 | 0.00 | 0.00 | 75 | 1011.9 |
| 20260906093004 | 24 | 185 | 0.0 | 0.0 | 0.00 | 0.00 | 0.00 | 74 | 1012.1 |
| 20260906091543 | 24 | 185 | 0.0 | 0.0 | 0.00 | 0.00 | 0.00 | 74 | 1011.9 |
| 20260906090027 | 24 | 185 | 0.0 | 0.0 | 0.00 | 0.00 | 0.00 | 74 | 1011.9 |
| 20260906084515 | 24 | 185 | 0.0 | 3.2 | 0.00 | 0.00 | 0.00 | 73 | 1011.8 |
| 20260906083055 | 25 | 185 | 0.0 | 0.0 | 0.00 | 0.00 | 0.00 | 72 | 1011.8 |
| 20260906081538 | 25 | 185 | 1.6 | 4.8 | 0.00 | 0.00 | 0.00 | 73 | 1011.8 |
| 20260906080028 | 24 | 194 | 0.0 | 0.0 | 0.00 | 0.00 | 0.00 | 73 | 1011.7 |
| 20260906074601 | 24 | 194 | 0.0 | 0.0 | 0.00 | 0.00 | 0.00 | 74 | 1011.7 |
| 20260906074502 | 24 | 194 | 0.0 | 0.0 | 0.00 | 0.00 | 0.00 | 75 | 1011.8 |
| 20260906073043 | 24 | 194 | 0.0 | 0.0 | 0.00 | 0.00 | 0.00 | 73 | 1011.8 |
| 20260906071526 | 25 | 194 | 0.0 | 0.0 | 0.00 | 0.00 | 0.00 | 72 | 1011.9 |
| 20260906070015 | 25 | 194 | 0.0 | 3.2 | 0.00 | 0.00 | 0.00 | 72 | 1012.0 |
| 20260906064559 | 25 | 194 | 0.0 | 6.4 | 0.00 | 0.00 | 0.00 | 72 | 1012.0 |
| 20260906064502 | 25 | 194 | 0.0 | 6.4 | 0.00 | 0.00 | 0.00 | 72 | 1012.1 |
| 20260906063041 | 25 | 148 | 0.0 | 3.2 | 0.00 | 0.00 | 0.00 | 71 | 1012.2 |
| 20260906061518 | 26 | 148 | 4.8 | 6.4 | 0.00 | 0.00 | 0.00 | 69 | 1012.0 |
| 20260906060100 | 26 | 61 | 0.0 | 3.2 | 0.00 | 0.00 | 0.00 | 69 | 1012.1 |
| 20260906060002 | 26 | 61 | 0.0 | 3.2 | 0.00 | 0.00 | 0.00 | 68 | 1012.1 |
| 20260906054537 | 26 | 61 | 1.6 | 4.8 | 0.00 | 0.00 | 0.00 | 67 | 1012.0 |
| 20260906053022 | 26 | 61 | 3.2 | 4.8 | 0.00 | 0.00 | 0.00 | 66 | 1012.0 |
| 20260906051508 | 26 | 61 | 3.2 | 4.8 | 0.00 | 0.00 | 0.00 | 67 | 1011.8 |
| 20260906050044 | 26 | 61 | 1.6 | 4.8 | 0.00 | 0.00 | 0.00 | 67 | 1011.8 |
| 20260906044523 | 26 | 61 | 1.6 | 3.2 | 0.00 | 0.00 | 0.00 | 67 | 1011.9 |
| 20260906043017 | 27 | 61 | 1.6 | 4.8 | 0.00 | 0.00 | 0.00 | 65 | 1012.0 |
| 20260906041600 | 27 | 61 | 3.2 | 6.4 | 0.00 | 0.00 | 0.00 | 63 | 1012.0 |
| 20260906040038 | 27 | 61 | 3.2 | 6.4 | 0.00 | 0.00 | 0.00 | 62 | 1011.9 |
| 20260906034534 | 28 | 61 | 1.6 | 6.4 | 0.00 | 0.00 | 0.00 | 62 | 1011.7 |
| 20260906033022 | 28 | 61 | 3.2 | 6.4 | 0.00 | 0.00 | 0.00 | 62 | 1011.7 |
| 20260906031551 | 28 | 61 | 0.0 | 8.0 | 0.00 | 0.00 | 0.00 | 60 | 1011.5 |
| 20260906030034 | 29 | 121 | 1.6 | 14.5 | 0.00 | 0.00 | 0.00 | 59 | 1011.5 |
| 20260906024519 | 29 | 105 | 3.2 | 6.4 | 0.00 | 0.00 | 0.00 | 58 | 1011.3 |
| 20260906023009 | 29 | 101 | 4.8 | 9.7 | 0.00 | 0.00 | 0.00 | 57 | 1011.2 |
| 20260906021551 | 30 | 108 | 1.6 | 9.7 | 0.00 | 0.00 | 0.00 | 56 | 1011.0 |
| 20260906020045 | 30 | 96 | 3.2 | 6.4 | 0.00 | 0.00 | 0.00 | 54 | 1010.8 |
| 20260906014534 | 31 | 91 | 6.4 | 11.3 | 0.00 | 0.00 | 0.00 | 52 | 1010.7 |
| 20260906013013 | 31 | 78 | 9.7 | 17.7 | 0.00 | 0.00 | 0.00 | 50 | 1010.5 |
| 20260906011549 | 32 | 67 | 14.5 | 19.3 | 0.00 | 0.00 | 0.00 | 50 | 1010.6 |
| 20260906010033 | 32 | 97 | 6.4 | 11.3 | 0.00 | 0.00 | 0.00 | 49 | 1010.4 |
| 20260906004533 | 33 | 85 | 8.0 | 14.5 | 0.00 | 0.00 | 0.00 | 47 | 1010.5 |
| 20260906003003 | 34 | 80 | 11.3 | 17.7 | 0.00 | 0.00 | 0.00 | 45 | 1010.4 |
| 20260906001549 | 34 | 74 | 9.7 | 19.3 | 0.00 | 0.00 | 0.00 | 44 | 1010.5 |
| 20260906000033 | 35 | 68 | 12.9 | 20.9 | 0.00 | 0.00 | 0.00 | 42 | 1010.4 |
| 20260905234525 | 36 | 88 | 4.8 | 9.7 | 0.00 | 0.00 | 0.00 | 37 | 1010.4 |
| 20260905233011 | 36 | 94 | 4.8 | 12.9 | 0.00 | 0.00 | 0.00 | 37 | 1010.2 |
| 20260905231549 | 36 | 76 | 6.4 | 12.9 | 0.00 | 0.00 | 0.00 | 36 | 1010.3 |
| 20260905230035 | 37 | 88 | 8.0 | 16.1 | 0.00 | 0.00 | 0.00 | 36 | 1010.2 |
| 20260905224524 | 37 | 62 | 9.7 | 16.1 | 0.00 | 0.00 | 0.00 | 36 | 1010.1 |
| 20260905223056 | 37 | 47 | 6.4 | 14.5 | 0.00 | 0.00 | 0.00 | 35 | 1010.1 |
| 20260905223001 | 37 | 47 | 6.4 | 14.5 | 0.00 | 0.00 | 0.00 | 36 | 1010.1 |
| 20260905221544 | 37 | 82 | 1.6 | 11.3 | 0.00 | 0.00 | 0.00 | 36 | 1010.2 |
| 20260905220023 | 38 | 29 | 1.6 | 6.4 | 0.00 | 0.00 | 0.00 | 34 | 1010.3 |
| 20260905214511 | 37 | 234 | 4.8 | 11.3 | 0.00 | 0.00 | 0.00 | 35 | 1010.5 |
| 20260905213048 | 37 | 30 | 6.4 | 16.1 | 0.00 | 0.00 | 0.00 | 36 | 1010.5 |
| 20260905211540 | 37 | 271 | 8.0 | 14.5 | 0.00 | 0.00 | 0.00 | 36 | 1010.7 |
| 20260905210016 | 37 | 5 | 4.8 | 12.9 | 0.00 | 0.00 | 0.00 | 36 | 1011.0 |
| 20260905204602 | 38 | 66 | 3.2 | 14.5 | 0.00 | 0.00 | 0.00 | 35 | 1011.2 |
| 20260905203037 | 38 | 88 | 4.8 | 16.1 | 0.00 | 0.00 | 0.00 | 38 | 1011.4 |
| 20260905201522 | 37 | 111 | 11.3 | 22.5 | 0.00 | 0.00 | 0.00 | 39 | 1011.5 |
| 20260905200106 | 38 | 40 | 1.6 | 11.3 | 0.00 | 0.00 | 0.00 | 39 | 1011.7 |
| 20260905200005 | 37 | 213 | 1.6 | 11.3 | 0.00 | 0.00 | 0.00 | 38 | 1011.7 |
| 20260905194548 | 37 | 166 | 6.4 | 12.9 | 0.00 | 0.00 | 0.00 | 39 | 1011.8 |
| 20260905193022 | 37 | 73 | 11.3 | 19.3 | 0.00 | 0.00 | 0.00 | 40 | 1012.0 |
| 20260905191504 | 37 | 41 | 12.9 | 22.5 | 0.00 | 0.00 | 0.00 | 40 | 1012.1 |
| 20260905190049 | 37 | 351 | 8.0 | 19.3 | 0.00 | 0.00 | 0.00 | 40 | 1012.5 |
| 20260905184525 | 36 | 44 | 8.0 | 25.7 | 0.00 | 0.00 | 0.00 | 41 | 1012.9 |
| 20260905183006 | 35 | 288 | 4.8 | 17.7 | 0.00 | 0.00 | 0.00 | 44 | 1013.0 |
| 20260905181547 | 35 | 360 | 9.7 | 20.9 | 0.00 | 0.00 | 0.00 | 45 | 1013.2 |
| 20260905180030 | 35 | 315 | 3.2 | 6.4 | 0.00 | 0.00 | 0.00 | 46 | 1013.3 |